Time;durP1;ratioP1;P1;durP2;ratioP2;P2;SDS_P1;SDS_P2;PMS_P1;PMS_P2;Temp;Humidity;BMP_temperature;BMP_pressure;BME280_temperature;BME280_humidity;BME280_pressure;Samples;Min_cycle;Max_cycle;Signal;HPM_P1;HPM_P2
2022/05/06 00:00:02;;;;;;;17.90;13.37;;;13.20;96.20;;;;;;5041867;28;20482;-56
2022/05/06 00:02:29;;;;;;;23.50;13.60;;;13.20;96.20;;;;;;5046750;28;20475;-56
2022/05/06 00:04:56;;;;;;;20.73;13.07;;;13.20;96.20;;;;;;5040302;28;20481;-56
2022/05/06 00:07:24;;;;;;;21.20;13.60;;;13.20;96.10;;;;;;5035229;28;20890;-55
2022/05/06 00:09:50;;;;;;;18.60;13.60;;;13.20;96.20;;;;;;5035158;28;20710;-55
2022/05/06 00:12:19;;;;;;;17.77;13.63;;;13.20;96.20;;;;;;5042016;28;20486;-55
2022/05/06 00:14:46;;;;;;;18.40;14.33;;;13.30;96.30;;;;;;5034757;28;20558;-55
2022/05/06 00:17:14;;;;;;;20.30;12.50;;;13.20;96.40;;;;;;5034345;28;20491;-56
2022/05/06 00:19:41;;;;;;;22.70;14.10;;;13.30;96.60;;;;;;5035509;28;21009;-56
2022/05/06 00:22:09;;;;;;;19.60;13.90;;;13.30;96.30;;;;;;5034604;28;20483;-56
2022/05/06 00:24:37;;;;;;;29.23;16.77;;;13.20;96.50;;;;;;5037604;28;20487;-56
2022/05/06 00:27:04;;;;;;;27.50;17.63;;;13.20;96.90;;;;;;5036514;28;20478;-56
2022/05/06 00:29:31;;;;;;;22.53;15.13;;;13.10;97.20;;;;;;5037006;28;20572;-55
2022/05/06 00:31:57;;;;;;;20.90;12.90;;;13.10;97.00;;;;;;5037954;28;20947;-55
2022/05/06 00:34:24;;;;;;;21.73;13.60;;;13.00;96.90;;;;;;5027663;28;20482;-56
2022/05/06 00:36:51;;;;;;;19.27;14.03;;;12.90;96.80;;;;;;5037332;28;20574;-56
2022/05/06 00:39:18;;;;;;;28.23;16.23;;;12.90;96.90;;;;;;5037641;28;21313;-55
2022/05/06 00:41:46;;;;;;;25.20;14.47;;;12.80;96.90;;;;;;5037683;28;20494;-55
2022/05/06 00:44:12;;;;;;;21.40;14.67;;;12.70;97.20;;;;;;5036297;28;20543;-56
2022/05/06 00:46:39;;;;;;;25.13;17.00;;;12.60;97.60;;;;;;5036718;28;20483;-56
2022/05/06 00:49:08;;;;;;;24.80;15.87;;;12.50;98.10;;;;;;5036068;28;20485;-56
2022/05/06 00:51:36;;;;;;;24.40;15.97;;;12.40;98.30;;;;;;5037503;28;20511;-56
2022/05/06 00:54:03;;;;;;;21.97;15.97;;;12.50;98.10;;;;;;5027775;28;21083;-57
2022/05/06 00:56:29;;;;;;;26.13;15.53;;;12.60;98.00;;;;;;5049363;28;21018;-57
2022/05/06 00:58:57;;;;;;;24.73;15.37;;;12.70;98.20;;;;;;5036269;28;20609;-56
2022/05/06 01:01:24;;;;;;;32.17;16.17;;;12.70;97.80;;;;;;5035961;28;20469;-56
2022/05/06 01:03:52;;;;;;;23.23;15.00;;;12.60;98.00;;;;;;5035901;28;20479;-56
2022/05/06 01:06:18;;;;;;;23.97;17.60;;;12.40;98.60;;;;;;5038926;28;20491;-56
2022/05/06 01:08:46;;;;;;;30.80;18.17;;;12.30;99.10;;;;;;5035218;28;20698;-56
2022/05/06 01:11:14;;;;;;;35.70;20.10;;;12.30;99.30;;;;;;5035117;28;20582;-56
2022/05/06 01:13:43;;;;;;;31.27;17.37;;;12.30;99.60;;;;;;5035579;28;20556;-56
2022/05/06 01:16:11;;;;;;;23.20;16.70;;;12.40;99.20;;;;;;5036331;28;20580;-56
2022/05/06 01:18:38;;;;;;;19.60;14.80;;;12.60;98.80;;;;;;5035675;28;20485;-56
2022/05/06 01:21:06;;;;;;;26.33;15.33;;;12.60;98.50;;;;;;5036468;28;20477;-56
2022/05/06 01:23:35;;;;;;;23.83;15.40;;;12.70;98.30;;;;;;5036839;28;20494;-57
2022/05/06 01:26:02;;;;;;;26.80;15.40;;;12.80;98.10;;;;;;5038506;28;20920;-56
2022/05/06 01:28:30;;;;;;;21.97;14.87;;;12.80;98.10;;;;;;5036690;28;20550;-56
2022/05/06 01:31:00;;;;;;;27.77;16.70;;;12.90;98.10;;;;;;5032695;28;20489;-56
2022/05/06 01:33:29;;;;;;;22.90;15.80;;;13.10;97.80;;;;;;5037688;28;20563;-56
2022/05/06 01:35:58;;;;;;;23.87;15.53;;;13.10;97.60;;;;;;5037225;28;20475;-56
2022/05/06 01:38:30;;;;;;;21.03;15.13;;;13.20;97.70;;;;;;5033084;28;20602;-56
2022/05/06 01:41:03;;;;;;;22.00;15.73;;;13.20;97.70;;;;;;5034790;28;20474;-56
2022/05/06 01:43:37;;;;;;;24.73;15.23;;;13.30;97.60;;;;;;5037156;28;20471;-56
2022/05/06 01:46:05;;;;;;;31.00;16.40;;;13.30;97.50;;;;;;5036545;28;20482;-56
2022/05/06 01:48:32;;;;;;;25.43;16.70;;;13.40;97.40;;;;;;5034500;28;21021;-56
2022/05/06 01:51:01;;;;;;;24.30;17.17;;;13.40;97.40;;;;;;5036908;28;20491;-56
2022/05/06 01:53:28;;;;;;;26.80;16.20;;;13.30;97.50;;;;;;5035685;28;20475;-55
2022/05/06 01:55:54;;;;;;;22.50;15.77;;;13.30;97.70;;;;;;5034852;28;20488;-56
2022/05/06 01:58:22;;;;;;;21.37;15.67;;;13.30;97.60;;;;;;5037721;28;20553;-56
2022/05/06 02:00:49;;;;;;;23.93;16.60;;;13.40;97.60;;;;;;5033693;28;20490;-56
2022/05/06 02:06:00;;;;;;;23.47;17.00;;;13.50;97.30;;;;;;5025725;28;20501;-56
2022/05/06 02:08:27;;;;;;;22.57;15.57;;;13.60;97.10;;;;;;5037983;28;20918;-56
2022/05/06 02:10:53;;;;;;;22.80;14.57;;;13.60;97.00;;;;;;5035489;28;20482;-56
2022/05/06 02:13:21;;;;;;;25.60;16.47;;;13.70;96.90;;;;;;5035089;28;20488;-56
2022/05/06 02:15:48;;;;;;;19.73;15.37;;;13.70;96.70;;;;;;5036123;28;20600;-56
2022/05/06 02:18:15;;;;;;;18.47;14.40;;;13.70;96.70;;;;;;5036373;28;21379;-55
2022/05/06 02:20:41;;;;;;;20.60;15.40;;;13.70;96.60;;;;;;5033654;28;20491;-56
2022/05/06 02:23:08;;;;;;;23.20;15.47;;;13.70;96.50;;;;;;5033353;28;20929;-56
2022/05/06 02:25:36;;;;;;;21.77;15.90;;;13.60;96.40;;;;;;5035822;28;20478;-56
2022/05/06 02:28:03;;;;;;;19.73;13.53;;;13.50;96.70;;;;;;5036188;28;21263;-56
2022/05/06 02:33:15;;;;;;;20.87;15.93;;;13.40;97.20;;;;;;4990585;28;20530;-56
2022/05/06 02:35:43;;;;;;;22.10;15.50;;;13.40;97.20;;;;;;5032000;28;20498;-56
2022/05/06 02:38:10;;;;;;;19.17;14.60;;;13.40;97.00;;;;;;5033226;28;20685;-56
2022/05/06 02:40:39;;;;;;;26.73;16.80;;;13.40;96.90;;;;;;5034742;28;21074;-56
2022/05/06 02:43:07;;;;;;;27.07;16.90;;;13.50;96.80;;;;;;5035473;28;20498;-56
2022/05/06 02:45:35;;;;;;;28.23;16.17;;;13.50;96.80;;;;;;5035523;28;20479;-56
2022/05/06 02:48:03;;;;;;;25.53;18.37;;;13.50;96.70;;;;;;5035941;28;21079;-56
2022/05/06 02:50:30;;;;;;;26.50;15.30;;;13.50;96.70;;;;;;5035326;28;20489;-56
2022/05/06 02:52:56;;;;;;;21.27;15.43;;;13.50;96.70;;;;;;5035428;28;20497;-57
2022/05/06 02:55:24;;;;;;;28.90;17.50;;;13.50;96.80;;;;;;5037748;28;20572;-56
2022/05/06 02:57:51;;;;;;;26.83;17.10;;;13.50;96.60;;;;;;5038731;28;20973;-56
2022/05/06 03:00:18;;;;;;;26.00;16.90;;;13.50;96.80;;;;;;5024866;28;20848;-57
2022/05/06 03:02:46;;;;;;;26.53;16.90;;;13.40;96.70;;;;;;5018724;28;20487;-56
2022/05/06 03:05:13;;;;;;;19.20;14.80;;;13.50;96.70;;;;;;5031796;28;20487;-56
2022/05/06 03:07:40;;;;;;;25.47;17.20;;;13.30;96.90;;;;;;5007492;28;20488;-56
2022/05/06 03:10:09;;;;;;;29.53;19.47;;;13.30;97.00;;;;;;5032855;28;21030;-56
2022/05/06 03:12:36;;;;;;;27.90;18.10;;;13.40;97.20;;;;;;5018790;28;20577;-57
2022/05/06 03:15:04;;;;;;;29.57;19.30;;;13.40;97.00;;;;;;5020449;28;20496;-56
2022/05/06 03:17:31;;;;;;;25.30;17.50;;;13.50;97.00;;;;;;5017234;28;20511;-56
2022/05/06 03:19:59;;;;;;;27.87;17.93;;;13.50;96.80;;;;;;5018580;28;20992;-56
2022/05/06 03:22:26;;;;;;;23.13;17.13;;;13.50;96.70;;;;;;5019770;28;21028;-56
2022/05/06 03:24:53;;;;;;;25.30;17.20;;;13.40;96.80;;;;;;5016797;28;20895;-53
2022/05/06 03:30:05;;;;;;;32.33;18.70;;;13.40;96.90;;;;;;5017696;28;20481;-56
2022/05/06 03:32:35;;;;;;;34.73;18.97;;;13.30;97.00;;;;;;5031175;28;20479;-56
2022/05/06 03:35:04;;;;;;;26.30;18.93;;;13.30;96.90;;;;;;5018273;28;20571;-54
2022/05/06 03:37:33;;;;;;;36.53;23.20;;;13.30;96.90;;;;;;5018499;28;20465;-54
2022/05/06 03:40:00;;;;;;;30.87;20.83;;;13.30;97.00;;;;;;5023214;28;20477;-55
2022/05/06 03:42:26;;;;;;;30.90;19.53;;;13.30;97.10;;;;;;5018287;28;20510;-55
2022/05/06 03:44:53;;;;;;;30.90;19.10;;;13.30;96.90;;;;;;5031182;28;20904;-55
2022/05/06 03:47:20;;;;;;;31.33;21.10;;;13.30;96.90;;;;;;5033404;28;20488;-55
2022/05/06 03:51:20;;;;;;;23.63;17.57;;;13.40;96.80;;;;;;5012664;28;20491;-55
2022/05/06 03:52:33;;;;;;;27.97;19.03;;;13.40;96.90;;;;;;5030160;28;20493;-55
2022/05/06 03:55:00;;;;;;;27.60;18.40;;;13.40;96.90;;;;;;5024460;28;21000;-55
2022/05/06 03:57:27;;;;;;;27.87;17.57;;;13.40;96.60;;;;;;5026615;28;20496;-55
2022/05/06 03:59:54;;;;;;;31.43;21.50;;;13.40;96.60;;;;;;5017107;28;20545;-55
2022/05/06 04:02:21;;;;;;;36.13;20.80;;;13.50;96.50;;;;;;5025408;28;20897;-55
2022/05/06 04:04:47;;;;;;;25.10;18.03;;;13.50;96.70;;;;;;5027437;28;20481;-55
2022/05/06 04:07:15;;;;;;;28.47;18.30;;;13.50;96.50;;;;;;5035401;28;20492;-55
2022/05/06 04:09:43;;;;;;;28.80;19.33;;;13.40;96.50;;;;;;5015248;28;20585;-55
2022/05/06 04:12:11;;;;;;;29.90;18.97;;;13.50;96.60;;;;;;5033222;28;20532;-56
2022/05/06 04:14:37;;;;;;;30.80;19.20;;;13.40;96.80;;;;;;5030393;28;20508;-55
2022/05/06 04:17:05;;;;;;;30.90;20.87;;;13.50;96.80;;;;;;5018918;28;20996;-55
2022/05/06 04:19:32;;;;;;;34.93;22.07;;;13.50;96.60;;;;;;5016863;28;20495;-55
2022/05/06 04:24:44;;;;;;;28.33;17.70;;;13.60;96.50;;;;;;5014080;28;20476;-55
2022/05/06 04:27:10;;;;;;;34.03;21.10;;;13.60;96.60;;;;;;5015512;28;22278;-56
2022/05/06 04:29:37;;;;;;;33.23;21.30;;;13.60;96.60;;;;;;5017326;28;20475;-55
2022/05/06 04:32:05;;;;;;;36.43;21.53;;;13.70;96.60;;;;;;5018432;28;20486;-55
2022/05/06 04:34:31;;;;;;;27.83;19.17;;;13.70;96.20;;;;;;5022129;28;20556;-55
2022/05/06 04:36:58;;;;;;;32.00;20.23;;;13.80;96.20;;;;;;5024751;28;20483;-56
2022/05/06 04:39:25;;;;;;;27.90;18.43;;;13.70;96.20;;;;;;5030123;28;20484;-55
2022/05/06 04:41:53;;;;;;;25.60;19.93;;;13.80;96.10;;;;;;5013658;28;20478;-55
2022/05/06 04:44:19;;;;;;;28.50;20.83;;;13.80;96.10;;;;;;5022076;28;20794;-55
2022/05/06 04:46:46;;;;;;;32.47;20.13;;;13.80;96.10;;;;;;5032878;28;20486;-55
2022/05/06 04:49:15;;;;;;;32.13;19.80;;;13.80;96.00;;;;;;5017031;28;20488;-56
2022/05/06 04:51:42;;;;;;;29.10;20.50;;;13.70;96.00;;;;;;5018444;28;20483;-57
2022/05/06 04:54:11;;;;;;;30.30;20.07;;;13.70;96.10;;;;;;5015817;28;21048;-56
2022/05/06 04:56:37;;;;;;;26.63;19.53;;;13.80;96.00;;;;;;5003876;28;20978;-55
2022/05/06 04:59:05;;;;;;;27.30;20.73;;;13.70;95.70;;;;;;5021932;28;20507;-56
2022/05/06 05:01:32;;;;;;;28.00;19.40;;;13.70;95.80;;;;;;5026127;28;20481;-55
2022/05/06 05:03:59;;;;;;;31.30;20.00;;;13.70;95.80;;;;;;5014586;28;20831;-55
2022/05/06 05:06:26;;;;;;;26.97;19.70;;;13.70;95.90;;;;;;5018791;28;20486;-55
2022/05/06 05:08:53;;;;;;;25.40;18.87;;;13.70;96.00;;;;;;5016409;28;21432;-54
2022/05/06 05:11:19;;;;;;;30.00;21.47;;;13.70;95.90;;;;;;5018404;28;20817;-55
2022/05/06 05:13:46;;;;;;;41.63;20.37;;;13.80;96.00;;;;;;5015483;28;20512;-55
2022/05/06 05:16:14;;;;;;;27.03;20.77;;;13.80;96.10;;;;;;5017273;28;20818;-54
2022/05/06 05:18:41;;;;;;;22.77;17.90;;;14.00;96.00;;;;;;5013714;28;20486;-56
2022/05/06 05:21:07;;;;;;;27.23;18.60;;;14.10;95.90;;;;;;5024885;28;20483;-57
2022/05/06 05:23:34;;;;;;;27.13;20.10;;;14.20;95.90;;;;;;5020814;28;20480;-57
2022/05/06 05:26:00;;;;;;;27.40;19.93;;;14.30;96.10;;;;;;5018475;28;20492;-55
2022/05/06 05:28:27;;;;;;;29.70;20.90;;;14.40;96.30;;;;;;5018226;28;20976;-55
2022/05/06 05:30:54;;;;;;;31.10;17.93;;;14.50;96.00;;;;;;5015328;28;20784;-57
2022/05/06 05:33:22;;;;;;;24.40;19.07;;;14.60;96.30;;;;;;5017049;28;20595;-57
2022/05/06 05:35:48;;;;;;;25.00;18.50;;;14.80;96.20;;;;;;5016095;28;20487;-55
2022/05/06 05:38:15;;;;;;;28.90;18.33;;;14.90;96.00;;;;;;5017504;28;20482;-55
2022/05/06 05:40:42;;;;;;;25.77;17.67;;;14.90;95.90;;;;;;5018579;28;20834;-55
2022/05/06 05:48:19;;;;;;;30.73;17.87;;;15.00;96.00;;;;;;5031964;28;20489;-56
2022/05/06 05:48:41;;;;;;;30.40;17.53;;;15.20;95.80;;;;;;5013831;28;20532;-56
2022/05/06 05:51:08;;;;;;;21.07;15.93;;;15.20;95.30;;;;;;5017572;28;20566;-56
2022/05/06 05:53:34;;;;;;;19.30;16.20;;;15.20;95.40;;;;;;5017767;28;20490;-56
2022/05/06 05:56:01;;;;;;;21.23;16.20;;;15.20;95.20;;;;;;5022006;28;20494;-56
2022/05/06 05:58:28;;;;;;;22.87;15.80;;;15.20;95.20;;;;;;5018386;28;20478;-56
2022/05/06 06:00:54;;;;;;;23.33;16.03;;;15.30;95.30;;;;;;5010539;28;20857;-56
2022/05/06 06:03:21;;;;;;;19.50;15.87;;;15.20;95.50;;;;;;5015794;28;20541;-57
2022/05/06 06:05:49;;;;;;;21.50;13.67;;;15.40;95.40;;;;;;5028020;28;20480;-56
2022/05/06 06:08:16;;;;;;;18.70;13.47;;;15.40;94.80;;;;;;5034309;28;20863;-56
2022/05/06 06:10:42;;;;;;;20.37;14.63;;;15.50;94.90;;;;;;5015606;28;20472;-57
2022/05/06 06:13:09;;;;;;;17.20;12.57;;;15.60;94.40;;;;;;5016466;28;20490;-58
2022/05/06 06:15:36;;;;;;;18.10;13.20;;;15.70;94.20;;;;;;5016479;28;20490;-58
2022/05/06 06:18:02;;;;;;;15.57;12.07;;;15.70;93.70;;;;;;5017083;28;20479;-57
2022/05/06 06:20:29;;;;;;;17.40;12.10;;;15.70;93.30;;;;;;5015330;28;20487;-57
2022/05/06 06:22:57;;;;;;;22.93;11.53;;;15.90;94.10;;;;;;5015211;28;20494;-56
2022/05/06 06:25:24;;;;;;;18.03;13.13;;;16.00;93.60;;;;;;5017554;28;20467;-57
2022/05/06 06:27:50;;;;;;;18.17;12.10;;;16.10;93.50;;;;;;5017446;28;21067;-57
2022/05/06 06:30:17;;;;;;;16.07;10.80;;;16.30;93.00;;;;;;5017858;28;20561;-57
2022/05/06 06:32:44;;;;;;;14.07;11.50;;;16.40;92.50;;;;;;5013813;28;20488;-57
2022/05/06 06:35:10;;;;;;;13.30;11.10;;;16.60;92.50;;;;;;5030024;28;20498;-57
2022/05/06 06:37:38;;;;;;;14.53;11.10;;;16.70;92.20;;;;;;5020438;28;20511;-57
2022/05/06 06:40:07;;;;;;;12.73;11.20;;;16.80;92.40;;;;;;5016519;28;20487;-57
2022/05/06 06:42:34;;;;;;;15.00;10.30;;;16.90;92.30;;;;;;5014895;28;20760;-57
2022/05/06 06:45:01;;;;;;;15.70;9.93;;;17.10;92.40;;;;;;5017406;28;20484;-57
2022/05/06 06:47:27;;;;;;;19.77;10.57;;;17.30;91.70;;;;;;5019813;28;20993;-57
2022/05/06 06:49:54;;;;;;;12.90;9.83;;;17.60;90.90;;;;;;5011352;28;21126;-56
2022/05/06 06:52:20;;;;;;;17.30;9.60;;;17.70;90.80;;;;;;5017281;28;21032;-57
2022/05/06 06:54:47;;;;;;;12.30;10.03;;;17.90;90.50;;;;;;5016609;28;20934;-57
2022/05/06 06:57:15;;;;;;;14.07;9.80;;;18.10;90.80;;;;;;5020744;28;20779;-57
2022/05/06 06:59:42;;;;;;;17.70;10.53;;;18.40;90.40;;;;;;5017028;28;20503;-57
2022/05/06 07:02:08;;;;;;;9.10;7.93;;;18.60;89.30;;;;;;5019212;28;20471;-56
2022/05/06 07:04:35;;;;;;;14.63;9.53;;;18.80;88.50;;;;;;5031990;28;20494;-57
2022/05/06 07:12:32;;;;;;;12.30;8.20;;;19.40;87.20;;;;;;5019402;28;20490;-57
2022/05/06 07:14:59;;;;;;;9.07;8.10;;;19.60;86.40;;;;;;5023416;28;20608;-56
2022/05/06 07:17:25;;;;;;;15.33;8.27;;;19.70;88.40;;;;;;5023756;28;20488;-56
2022/05/06 07:19:52;;;;;;;9.47;7.27;;;19.90;86.30;;;;;;5019549;28;20476;-56
2022/05/06 07:22:18;;;;;;;11.43;6.90;;;20.00;85.20;;;;;;5027895;28;20487;-56
2022/05/06 07:24:45;;;;;;;8.43;6.83;;;20.10;83.50;;;;;;5025433;28;20493;-56
2022/05/06 07:27:12;;;;;;;7.20;6.50;;;20.10;84.40;;;;;;5026984;28;20484;-57
2022/05/06 07:29:40;;;;;;;7.87;7.07;;;20.30;85.10;;;;;;5022331;28;20589;-58
2022/05/06 07:32:08;;;;;;;6.97;6.33;;;20.30;82.80;;;;;;5028010;28;20484;-57
2022/05/06 07:34:34;;;;;;;7.37;5.43;;;20.50;82.70;;;;;;5025097;28;21003;-58
2022/05/06 07:37:01;;;;;;;9.13;5.90;;;20.50;80.00;;;;;;5026522;28;20475;-56
2022/05/06 07:39:28;;;;;;;13.93;6.60;;;20.60;82.20;;;;;;5021141;28;20490;-57
2022/05/06 07:41:54;;;;;;;8.37;5.53;;;20.70;81.90;;;;;;5026103;28;20973;-57
2022/05/06 07:44:21;;;;;;;11.73;5.50;;;20.90;81.00;;;;;;5026738;28;20479;-57
2022/05/06 07:46:50;;;;;;;8.33;5.17;;;21.10;82.50;;;;;;5027107;28;20492;-57
2022/05/06 07:49:16;;;;;;;6.43;4.33;;;21.20;80.50;;;;;;5025750;28;20642;-57
2022/05/06 07:51:43;;;;;;;10.53;5.03;;;21.40;80.70;;;;;;5025101;28;20498;-56
2022/05/06 07:54:10;;;;;;;17.70;5.47;;;21.60;80.00;;;;;;5024950;28;20530;-56
2022/05/06 07:56:37;;;;;;;8.20;5.10;;;21.80;79.00;;;;;;5027781;28;20476;-57
2022/05/06 07:59:04;;;;;;;7.67;4.63;;;21.90;77.80;;;;;;5018805;28;20860;-57
2022/05/06 08:04:36;;;;;;;6.90;5.10;;;22.20;77.20;;;;;;5046049;28;20748;-57
2022/05/06 08:07:05;;;;;;;12.90;5.00;;;22.20;74.60;;;;;;5044409;28;20496;-56
2022/05/06 08:09:31;;;;;;;7.20;4.70;;;22.30;74.20;;;;;;5040678;28;21373;-54
2022/05/06 08:11:59;;;;;;;8.00;4.37;;;22.30;74.90;;;;;;5046845;28;20481;-57
2022/05/06 08:14:25;;;;;;;7.63;4.30;;;22.40;74.40;;;;;;5046661;28;20481;-56
2022/05/06 08:16:52;;;;;;;12.60;4.60;;;22.30;71.80;;;;;;5045566;28;20852;-56
2022/05/06 08:19:20;;;;;;;6.27;3.93;;;22.30;73.20;;;;;;5041369;28;20481;-56
2022/05/06 08:21:47;;;;;;;5.23;3.73;;;22.40;73.90;;;;;;5047390;28;21286;-56
2022/05/06 08:24:14;;;;;;;5.63;3.20;;;22.50;73.10;;;;;;5044569;28;20532;-56
2022/05/06 08:26:41;;;;;;;5.40;3.57;;;22.70;73.10;;;;;;5041141;28;20482;-57
2022/05/06 08:29:08;;;;;;;5.67;3.60;;;22.90;71.80;;;;;;5036115;28;20612;-57
2022/05/06 08:31:37;;;;;;;4.17;3.00;;;22.90;68.90;;;;;;5044727;28;20870;-57
2022/05/06 08:34:06;;;;;;;5.17;3.30;;;22.80;68.80;;;;;;5044422;28;20986;-57
2022/05/06 08:36:35;;;;;;;8.03;2.80;;;22.80;69.60;;;;;;5044164;28;20480;-55
2022/05/06 08:39:02;;;;;;;5.80;3.70;;;22.60;68.10;;;;;;5039083;28;20485;-56
2022/05/06 08:41:29;;;;;;;7.73;3.20;;;22.60;68.50;;;;;;5039855;28;20548;-56
2022/05/06 08:43:56;;;;;;;3.67;2.97;;;22.60;69.10;;;;;;5042742;28;20508;-56
2022/05/06 08:51:56;;;;;;;3.77;3.00;;;22.80;68.40;;;;;;5033801;28;20487;-56
2022/05/06 08:54:23;;;;;;;3.33;2.90;;;22.90;67.90;;;;;;5042632;28;20883;-56
2022/05/06 08:56:50;;;;;;;4.03;3.07;;;22.90;66.80;;;;;;5045995;28;20866;-56
2022/05/06 08:59:17;;;;;;;4.23;3.63;;;22.80;67.80;;;;;;5035262;28;21724;-56
2022/05/06 09:01:44;;;;;;;3.87;3.20;;;22.80;67.00;;;;;;5060467;28;20493;-55
2022/05/06 09:04:10;;;;;;;6.40;3.33;;;22.90;68.90;;;;;;5040942;28;20458;-56
2022/05/06 09:06:37;;;;;;;6.87;3.77;;;23.00;66.40;;;;;;5044684;28;20535;-55
2022/05/06 09:09:05;;;;;;;4.60;3.53;;;23.00;67.10;;;;;;5040211;28;21321;-57
2022/05/06 09:14:20;;;;;;;7.93;3.93;;;22.90;66.90;;;;;;5043436;28;21059;-57
2022/05/06 09:16:47;;;;;;;4.30;3.33;;;23.00;68.10;;;;;;5032732;28;20500;-56
2022/05/06 09:19:21;;;;;;;7.53;3.77;;;23.10;67.90;;;;;;5038021;28;20490;-56
2022/05/06 09:22:08;;;;;;;5.40;3.90;;;23.10;67.90;;;;;;5029550;28;20475;-56
2022/05/06 09:24:38;;;;;;;5.13;3.93;;;23.10;66.90;;;;;;5043966;28;20462;-57
2022/05/06 09:27:06;;;;;;;9.37;6.07;;;23.10;67.70;;;;;;5035062;28;20495;-56
2022/05/06 09:29:35;;;;;;;7.33;3.73;;;23.00;68.70;;;;;;5034899;28;20623;-57
2022/05/06 09:32:17;;;;;;;5.57;4.30;;;23.10;67.50;;;;;;5039941;28;20490;-56
2022/05/06 09:34:45;;;;;;;6.53;4.37;;;23.10;67.80;;;;;;5038587;28;20490;-56
2022/05/06 09:37:11;;;;;;;5.20;4.70;;;23.00;67.60;;;;;;5043268;28;20482;-56
2022/05/06 09:39:39;;;;;;;5.93;4.63;;;23.00;68.00;;;;;;5060103;28;20486;-56
2022/05/06 09:42:07;;;;;;;6.20;4.80;;;23.10;69.80;;;;;;5044009;28;20493;-56
2022/05/06 09:44:35;;;;;;;8.20;5.33;;;23.20;69.90;;;;;;5041887;28;20487;-56
2022/05/06 09:47:10;;;;;;;7.80;5.60;;;23.20;68.20;;;;;;5041945;28;20985;-56
2022/05/06 09:49:41;;;;;;;7.40;4.73;;;23.10;66.20;;;;;;5038357;28;20477;-55
2022/05/06 09:52:12;;;;;;;6.20;5.40;;;23.00;67.00;;;;;;5043956;28;20536;-56
2022/05/06 09:54:42;;;;;;;7.40;4.87;;;22.70;65.90;;;;;;5045992;28;20957;-56
2022/05/06 09:57:11;;;;;;;7.40;5.07;;;22.60;67.90;;;;;;5053107;28;20575;-57
2022/05/06 09:59:38;;;;;;;5.57;5.07;;;22.60;67.50;;;;;;5037891;28;20473;-58
2022/05/06 10:02:05;;;;;;;8.73;5.60;;;22.70;67.50;;;;;;5046106;28;20547;-56
2022/05/06 10:04:32;;;;;;;7.33;5.00;;;22.70;68.60;;;;;;5047871;28;20991;-55
2022/05/06 10:07:00;;;;;;;10.70;5.40;;;22.90;70.00;;;;;;5046934;28;20777;-54
2022/05/06 10:09:31;;;;;;;7.70;4.53;;;23.10;69.20;;;;;;5040982;28;20457;-56
2022/05/06 10:12:03;;;;;;;5.60;5.10;;;23.20;66.20;;;;;;5049591;28;20474;-55
2022/05/06 10:14:30;;;;;;;6.50;4.70;;;23.40;68.30;;;;;;5041819;28;20470;-56
2022/05/06 10:16:57;;;;;;;4.23;3.80;;;23.60;67.10;;;;;;5042019;28;20483;-56
2022/05/06 10:19:44;;;;;;;6.00;4.77;;;23.60;64.90;;;;;;5040692;28;20473;-56
2022/05/06 10:22:11;;;;;;;5.67;4.00;;;23.70;65.20;;;;;;5048954;28;20510;-55
2022/05/06 10:24:40;;;;;;;7.53;3.97;;;23.70;66.50;;;;;;5046182;28;20492;-58
2022/05/06 10:33:14;;;;;;;9.07;4.70;;;24.00;66.40;;;;;;5017923;28;20503;-56
2022/05/06 10:35:42;;;;;;;8.17;4.00;;;24.10;67.40;;;;;;5028336;28;20876;-54
2022/05/06 10:38:18;;;;;;;11.00;3.70;;;24.10;64.80;;;;;;5014175;28;21003;-55
2022/05/06 10:40:54;;;;;;;10.10;4.17;;;24.00;63.90;;;;;;5017372;28;20452;-55
2022/05/06 10:43:54;;;;;;;7.50;3.80;;;23.90;62.80;;;;;;5018133;28;20476;-54
2022/05/06 10:46:41;;;;;;;6.57;4.77;;;24.00;66.40;;;;;;5012930;28;20474;-54
2022/05/06 10:49:47;;;;;;;4.50;3.97;;;24.10;63.70;;;;;;5014243;28;20680;-55
2022/05/06 10:52:54;;;;;;;6.73;4.10;;;24.10;64.30;;;;;;5025315;28;20814;-55
2022/05/06 10:55:26;;;;;;;4.93;3.63;;;24.00;66.40;;;;;;5014751;28;21772;-55
2022/05/06 10:57:58;;;;;;;8.60;4.37;;;24.00;65.40;;;;;;5016425;28;20554;-56
2022/05/06 11:00:27;;;;;;;9.87;4.23;;;24.20;65.50;;;;;;5017095;28;21244;-55
2022/05/06 11:02:58;;;;;;;7.50;4.53;;;24.40;66.30;;;;;;5014857;28;20841;-55
2022/05/06 11:05:26;;;;;;;4.67;3.97;;;24.40;65.30;;;;;;5018099;28;21194;-54
2022/05/06 11:07:59;;;;;;;3.90;3.60;;;24.50;63.10;;;;;;5009538;28;21082;-55
2022/05/06 11:10:29;;;;;;;7.20;4.53;;;24.40;64.20;;;;;;5017155;28;20969;-55
2022/05/06 11:12:57;;;;;;;7.10;4.97;;;24.30;63.70;;;;;;5012339;28;20845;-54
2022/05/06 11:15:27;;;;;;;5.87;4.43;;;24.10;64.10;;;;;;5008782;28;20480;-55
2022/05/06 11:17:58;;;;;;;7.17;4.40;;;23.70;62.90;;;;;;5006953;28;20813;-54
2022/05/06 11:20:27;;;;;;;4.10;3.57;;;23.70;65.80;;;;;;5013437;28;20958;-55
2022/05/06 11:22:56;;;;;;;7.37;4.23;;;23.70;66.80;;;;;;5008998;28;20454;-55
2022/05/06 11:25:25;;;;;;;10.63;4.60;;;24.00;66.40;;;;;;5015393;28;20512;-55
2022/05/06 11:27:53;;;;;;;5.33;3.70;;;24.20;66.80;;;;;;5005999;28;20500;-55
2022/05/06 11:30:21;;;;;;;5.13;4.10;;;24.30;65.10;;;;;;5014803;28;20939;-55
2022/05/06 11:32:50;;;;;;;5.37;3.40;;;24.30;65.40;;;;;;5011362;28;20454;-55
2022/05/06 11:35:21;;;;;;;6.00;4.40;;;24.30;64.50;;;;;;5014321;28;20571;-54
2022/05/06 11:37:48;;;;;;;4.03;3.10;;;24.40;64.40;;;;;;5021662;28;20819;-55
2022/05/06 11:40:35;;;;;;;5.03;2.87;;;24.60;65.10;;;;;;5005658;28;20488;-55
2022/05/06 11:43:08;;;;;;;4.37;3.63;;;24.30;63.90;;;;;;4990104;28;20462;-55
2022/05/06 11:48:24;;;;;;;5.10;3.80;;;24.10;64.90;;;;;;4999924;28;20482;-56
2022/05/06 11:50:57;;;;;;;6.37;3.60;;;23.80;63.20;;;;;;4992021;28;20488;-56
2022/05/06 11:53:28;;;;;;;3.63;3.33;;;23.60;62.80;;;;;;5001346;28;20455;-55
2022/05/06 11:55:56;;;;;;;6.93;3.40;;;23.50;66.00;;;;;;4992577;28;20484;-54
2022/05/06 11:58:25;;;;;;;6.60;3.77;;;23.70;65.70;;;;;;5001541;28;20781;-55
2022/05/06 12:00:53;;;;;;;4.93;3.83;;;23.90;63.80;;;;;;4999180;28;20480;-55
2022/05/06 12:03:20;;;;;;;6.30;3.97;;;24.20;64.20;;;;;;5004758;28;20582;-56
2022/05/06 12:06:07;;;;;;;7.77;2.43;;;24.10;62.00;;;;;;4997086;28;20507;-54
2022/05/06 12:08:36;;;;;;;4.47;2.87;;;23.90;61.00;;;;;;4982959;28;20795;-55
2022/05/06 12:11:05;;;;;;;5.90;3.30;;;23.60;60.80;;;;;;5001808;28;20747;-54
2022/05/06 12:13:34;;;;;;;6.10;2.43;;;23.50;63.60;;;;;;4992712;28;20515;-54
2022/05/06 12:16:08;;;;;;;7.00;3.40;;;23.50;65.70;;;;;;4991371;28;20461;-54
2022/05/06 12:18:36;;;;;;;7.00;3.20;;;23.70;63.90;;;;;;5000732;28;20486;-54
2022/05/06 12:21:20;;;;;;;7.03;2.70;;;23.90;64.60;;;;;;4996876;28;20477;-55
2022/05/06 12:23:56;;;;;;;3.77;3.37;;;24.00;63.10;;;;;;4995787;28;20854;-54
2022/05/06 12:26:36;;;;;;;3.90;2.73;;;24.30;63.40;;;;;;4997203;28;20460;-55
2022/05/06 12:29:17;;;;;;;4.27;2.70;;;24.50;62.40;;;;;;4999666;28;20479;-56
2022/05/06 12:31:44;;;;;;;5.20;2.83;;;24.50;61.00;;;;;;4990676;28;20449;-55
2022/05/06 12:34:11;;;;;;;4.50;3.10;;;24.40;65.10;;;;;;4996292;28;20492;-54
2022/05/06 12:36:39;;;;;;;7.07;3.17;;;24.40;62.50;;;;;;4993418;28;20535;-55
2022/05/06 12:39:20;;;;;;;6.90;3.20;;;24.60;63.00;;;;;;5003027;28;20898;-54
2022/05/06 12:41:47;;;;;;;3.47;3.17;;;24.80;66.80;;;;;;4997745;28;20738;-54
2022/05/06 12:44:19;;;;;;;6.60;2.87;;;25.00;63.00;;;;;;4999236;28;20476;-55
2022/05/06 12:46:47;;;;;;;3.93;2.67;;;25.30;65.30;;;;;;4999370;28;20478;-54
2022/05/06 12:52:00;;;;;;;5.60;3.10;;;25.10;59.80;;;;;;4998591;28;20509;-55
2022/05/06 12:54:27;;;;;;;4.00;3.13;;;25.10;59.90;;;;;;5002006;28;20866;-54
2022/05/06 12:56:55;;;;;;;6.87;3.57;;;24.70;61.50;;;;;;4991018;28;20481;-55
2022/05/06 12:59:22;;;;;;;7.00;3.53;;;24.70;58.80;;;;;;5000084;28;20502;-55
2022/05/06 13:01:49;;;;;;;5.50;3.50;;;24.60;61.60;;;;;;4998284;28;20491;-55
2022/05/06 13:04:16;;;;;;;2.63;2.43;;;24.70;59.60;;;;;;4998090;28;20570;-54
2022/05/06 13:06:43;;;;;;;4.90;2.60;;;24.80;62.00;;;;;;4994954;28;20458;-55
2022/05/06 13:09:11;;;;;;;5.73;3.23;;;24.90;62.30;;;;;;4994415;28;20993;-54
2022/05/06 13:11:38;;;;;;;5.63;3.30;;;24.90;60.50;;;;;;5000580;28;20467;-55
2022/05/06 13:14:06;;;;;;;6.30;3.37;;;24.70;58.60;;;;;;4993448;28;20951;-55
2022/05/06 13:16:34;;;;;;;4.40;2.80;;;24.80;62.10;;;;;;4998366;28;20466;-55
2022/05/06 13:19:01;;;;;;;4.23;3.40;;;24.90;60.70;;;;;;4992159;28;20795;-55
2022/05/06 13:21:28;;;;;;;8.63;3.20;;;25.10;60.60;;;;;;4995489;28;20804;-55
2022/05/06 13:23:55;;;;;;;2.50;2.23;;;25.30;61.70;;;;;;4997361;28;20467;-56